sensor_id;sensor_type;location;lat;lon;timestamp;pressure;altitude;pressure_sealevel;temperature;humidity
31681;BME280;18281;51.364;9.566;2023-02-18T00:00:59;100522.34;;;5.65;100.00
31681;BME280;18281;51.364;9.566;2023-02-18T00:03:27;100529.25;;;5.66;100.00
31681;BME280;18281;51.364;9.566;2023-02-18T00:05:52;100534.47;;;5.66;100.00
31681;BME280;18281;51.364;9.566;2023-02-18T00:08:19;100529.69;;;5.50;100.00
31681;BME280;18281;51.364;9.566;2023-02-18T00:10:44;100526.69;;;5.30;100.00
31681;BME280;18281;51.364;9.566;2023-02-18T00:13:10;100535.38;;;5.29;100.00
31681;BME280;18281;51.364;9.566;2023-02-18T00:15:36;100536.41;;;5.23;100.00
31681;BME280;18281;51.364;9.566;2023-02-18T00:18:02;100530.19;;;5.29;100.00
31681;BME280;18281;51.364;9.566;2023-02-18T00:20:28;100539.06;;;5.21;100.00
31681;BME280;18281;51.364;9.566;2023-02-18T00:22:53;100533.47;;;5.38;100.00
31681;BME280;18281;51.364;9.566;2023-02-18T00:25:19;100519.94;;;5.22;100.00
31681;BME280;18281;51.364;9.566;2023-02-18T00:27:45;100512.78;;;5.31;100.00
31681;BME280;18281;51.364;9.566;2023-02-18T00:30:10;100506.41;;;5.44;100.00
31681;BME280;18281;51.364;9.566;2023-02-18T00:32:36;100501.03;;;5.50;100.00
31681;BME280;18281;51.364;9.566;2023-02-18T00:35:02;100500.88;;;5.20;100.00
31681;BME280;18281;51.364;9.566;2023-02-18T00:37:27;100500.88;;;5.20;100.00
31681;BME280;18281;51.364;9.566;2023-02-18T00:39:53;100485.91;;;5.29;100.00
31681;BME280;18281;51.364;9.566;2023-02-18T00:42:19;100487.28;;;5.45;100.00
31681;BME280;18281;51.364;9.566;2023-02-18T00:44:45;100487.13;;;5.17;100.00
31681;BME280;18281;51.364;9.566;2023-02-18T00:47:10;100483.03;;;5.06;100.00
31681;BME280;18281;51.364;9.566;2023-02-18T00:49:36;100479.50;;;5.09;100.00
31681;BME280;18281;51.364;9.566;2023-02-18T00:52:01;100484.09;;;4.98;100.00
31681;BME280;18281;51.364;9.566;2023-02-18T00:54:27;100478.38;;;5.19;100.00
31681;BME280;18281;51.364;9.566;2023-02-18T00:56:52;100482.63;;;5.22;100.00
31681;BME280;18281;51.364;9.566;2023-02-18T00:59:17;100475.88;;;5.15;100.00
31681;BME280;18281;51.364;9.566;2023-02-18T01:01:43;100477.47;;;5.20;100.00
31681;BME280;18281;51.364;9.566;2023-02-18T01:04:08;100474.63;;;5.30;100.00
31681;BME280;18281;51.364;9.566;2023-02-18T01:06:34;100488.09;;;5.11;100.00
31681;BME280;18281;51.364;9.566;2023-02-18T01:08:59;100490.47;;;5.20;100.00
31681;BME280;18281;51.364;9.566;2023-02-18T01:11:25;100490.47;;;5.20;100.00
31681;BME280;18281;51.364;9.566;2023-02-18T01:13:50;100486.91;;;5.24;100.00
31681;BME280;18281;51.364;9.566;2023-02-18T01:16:16;100494.25;;;5.09;100.00
31681;BME280;18281;51.364;9.566;2023-02-18T01:18:42;100498.13;;;5.27;100.00
31681;BME280;18281;51.364;9.566;2023-02-18T01:21:08;100496.00;;;5.08;100.00
31681;BME280;18281;51.364;9.566;2023-02-18T01:23:34;100504.63;;;5.10;100.00
31681;BME280;18281;51.364;9.566;2023-02-18T01:26:00;100498.91;;;4.96;100.00
31681;BME280;18281;51.364;9.566;2023-02-18T01:28:25;100495.03;;;5.12;100.00
31681;BME280;18281;51.364;9.566;2023-02-18T01:30:52;100488.69;;;5.22;100.00
31681;BME280;18281;51.364;9.566;2023-02-18T01:33:18;100488.28;;;5.05;100.00
31681;BME280;18281;51.364;9.566;2023-02-18T01:35:44;100478.06;;;4.97;100.00
31681;BME280;18281;51.364;9.566;2023-02-18T01:38:10;100481.34;;;5.04;100.00
31681;BME280;18281;51.364;9.566;2023-02-18T01:40:36;100477.88;;;5.05;100.00
31681;BME280;18281;51.364;9.566;2023-02-18T01:43:01;100482.91;;;5.11;100.00
31681;BME280;18281;51.364;9.566;2023-02-18T01:50:44;100479.38;;;5.14;100.00
31681;BME280;18281;51.364;9.566;2023-02-18T01:53:14;100476.97;;;5.06;100.00
31681;BME280;18281;51.364;9.566;2023-02-18T01:55:41;100476.75;;;5.14;100.00
31681;BME280;18281;51.364;9.566;2023-02-18T01:58:07;100482.56;;;4.90;100.00
31681;BME280;18281;51.364;9.566;2023-02-18T02:00:33;100476.28;;;4.99;100.00
31681;BME280;18281;51.364;9.566;2023-02-18T02:02:58;100469.50;;;4.92;100.00
31681;BME280;18281;51.364;9.566;2023-02-18T02:05:28;100474.38;;;5.04;100.00
31681;BME280;18281;51.364;9.566;2023-02-18T02:07:54;100472.25;;;5.20;100.00
31681;BME280;18281;51.364;9.566;2023-02-18T02:10:20;100469.88;;;5.11;100.00
31681;BME280;18281;51.364;9.566;2023-02-18T02:12:55;100476.28;;;4.98;100.00
31681;BME280;18281;51.364;9.566;2023-02-18T02:31:56;100454.97;;;5.18;100.00
31681;BME280;18281;51.364;9.566;2023-02-18T02:42:25;100455.28;;;5.05;100.00
31681;BME280;18281;51.364;9.566;2023-02-18T02:44:59;100445.75;;;5.06;100.00
31681;BME280;18281;51.364;9.566;2023-02-18T02:50:34;100442.63;;;5.24;100.00
31681;BME280;18281;51.364;9.566;2023-02-18T02:53:13;100426.63;;;5.07;100.00
31681;BME280;18281;51.364;9.566;2023-02-18T02:55:41;100432.50;;;5.14;100.00
31681;BME280;18281;51.364;9.566;2023-02-18T02:58:14;100430.16;;;5.04;100.00
31681;BME280;18281;51.364;9.566;2023-02-18T03:00:55;100430.53;;;5.23;100.00
31681;BME280;18281;51.364;9.566;2023-02-18T03:08:43;100422.78;;;5.20;100.00
31681;BME280;18281;51.364;9.566;2023-02-18T03:11:15;100427.06;;;5.23;100.00
31681;BME280;18281;51.364;9.566;2023-02-18T03:13:56;100414.94;;;5.22;100.00
31681;BME280;18281;51.364;9.566;2023-02-18T03:16:35;100414.53;;;5.06;100.00
31681;BME280;18281;51.364;9.566;2023-02-18T03:19:16;100419.03;;;4.99;100.00
31681;BME280;18281;51.364;9.566;2023-02-18T03:21:48;100407.41;;;5.11;100.00
31681;BME280;18281;51.364;9.566;2023-02-18T03:24:22;100401.00;;;4.92;100.00
31681;BME280;18281;51.364;9.566;2023-02-18T03:26:53;100389.28;;;5.08;100.00
31681;BME280;18281;51.364;9.566;2023-02-18T03:29:20;100397.44;;;4.96;100.00
31681;BME280;18281;51.364;9.566;2023-02-18T03:31:52;100386.59;;;5.11;100.00
31681;BME280;18281;51.364;9.566;2023-02-18T03:34:25;100381.38;;;5.13;100.00
31681;BME280;18281;51.364;9.566;2023-02-18T03:36:52;100372.59;;;5.15;100.00
31681;BME280;18281;51.364;9.566;2023-02-18T03:39:20;100362.59;;;5.33;100.00
31681;BME280;18281;51.364;9.566;2023-02-18T03:41:48;100354.38;;;5.48;100.00
31681;BME280;18281;51.364;9.566;2023-02-18T03:44:16;100350.97;;;5.46;100.00
31681;BME280;18281;51.364;9.566;2023-02-18T03:46:43;100354.94;;;5.60;100.00
31681;BME280;18281;51.364;9.566;2023-02-18T03:49:16;100339.63;;;5.47;100.00
31681;BME280;18281;51.364;9.566;2023-02-18T03:51:44;100338.59;;;5.54;100.00
31681;BME280;18281;51.364;9.566;2023-02-18T03:54:15;100336.28;;;5.44;100.00
31681;BME280;18281;51.364;9.566;2023-02-18T03:56:41;100332.66;;;5.49;100.00
31681;BME280;18281;51.364;9.566;2023-02-18T03:59:07;100333.09;;;5.64;100.00
31681;BME280;18281;51.364;9.566;2023-02-18T04:01:32;100325.50;;;5.56;100.00
31681;BME280;18281;51.364;9.566;2023-02-18T04:03:59;100320.53;;;5.48;100.00
31681;BME280;18281;51.364;9.566;2023-02-18T04:06:28;100321.25;;;5.53;100.00
31681;BME280;18281;51.364;9.566;2023-02-18T04:08:59;100310.59;;;5.61;100.00
31681;BME280;18281;51.364;9.566;2023-02-18T04:11:25;100317.94;;;5.77;100.00
31681;BME280;18281;51.364;9.566;2023-02-18T04:13:51;100308.44;;;5.76;100.00
31681;BME280;18281;51.364;9.566;2023-02-18T04:16:19;100308.44;;;5.76;100.00
31681;BME280;18281;51.364;9.566;2023-02-18T04:18:45;100300.69;;;5.72;100.00
31681;BME280;18281;51.364;9.566;2023-02-18T04:21:10;100304.19;;;5.73;100.00
31681;BME280;18281;51.364;9.566;2023-02-18T04:23:43;100299.66;;;5.78;100.00
31681;BME280;18281;51.364;9.566;2023-02-18T04:26:11;100308.06;;;5.88;100.00
31681;BME280;18281;51.364;9.566;2023-02-18T04:28:40;100304.34;;;5.95;100.00
31681;BME280;18281;51.364;9.566;2023-02-18T04:31:07;100303.25;;;5.74;100.00
31681;BME280;18281;51.364;9.566;2023-02-18T04:33:35;100308.00;;;5.89;100.00
31681;BME280;18281;51.364;9.566;2023-02-18T04:36:11;100300.06;;;5.93;100.00
31681;BME280;18281;51.364;9.566;2023-02-18T04:38:42;100297.41;;;5.96;100.00
31681;BME280;18281;51.364;9.566;2023-02-18T04:41:08;100299.34;;;5.87;100.00
31681;BME280;18281;51.364;9.566;2023-02-18T04:43:33;100295.63;;;5.96;100.00
31681;BME280;18281;51.364;9.566;2023-02-18T04:46:02;100294.06;;;5.90;100.00
31681;BME280;18281;51.364;9.566;2023-02-18T04:48:28;100296.81;;;5.86;100.00
31681;BME280;18281;51.364;9.566;2023-02-18T04:50:57;100296.81;;;5.86;100.00
31681;BME280;18281;51.364;9.566;2023-02-18T04:53:22;100291.97;;;6.02;100.00
31681;BME280;18281;51.364;9.566;2023-02-18T04:55:52;100280.75;;;6.00;100.00
31681;BME280;18281;51.364;9.566;2023-02-18T04:58:29;100275.72;;;5.94;100.00
31681;BME280;18281;51.364;9.566;2023-02-18T05:01:01;100274.63;;;6.01;100.00
31681;BME280;18281;51.364;9.566;2023-02-18T05:03:30;100275.06;;;5.87;100.00
31681;BME280;18281;51.364;9.566;2023-02-18T05:05:56;100270.34;;;6.00;100.00
31681;BME280;18281;51.364;9.566;2023-02-18T05:08:22;100269.41;;;6.01;100.00
31681;BME280;18281;51.364;9.566;2023-02-18T05:10:50;100262.47;;;6.01;100.00
31681;BME280;18281;51.364;9.566;2023-02-18T05:13:15;100258.09;;;6.02;100.00
31681;BME280;18281;51.364;9.566;2023-02-18T05:15:41;100254.59;;;6.03;100.00
31681;BME280;18281;51.364;9.566;2023-02-18T05:18:07;100249.38;;;6.03;100.00
31681;BME280;18281;51.364;9.566;2023-02-18T05:20:33;100255.72;;;5.94;100.00
31681;BME280;18281;51.364;9.566;2023-02-18T05:23:02;100255.13;;;5.86;100.00
31681;BME280;18281;51.364;9.566;2023-02-18T05:25:31;100250.16;;;6.05;100.00
31681;BME280;18281;51.364;9.566;2023-02-18T05:27:56;100248.25;;;6.10;100.00
31681;BME280;18281;51.364;9.566;2023-02-18T05:30:22;100245.06;;;6.02;100.00
31681;BME280;18281;51.364;9.566;2023-02-18T05:32:50;100244.94;;;6.05;100.00
31681;BME280;18281;51.364;9.566;2023-02-18T05:35:23;100227.41;;;6.10;100.00
31681;BME280;18281;51.364;9.566;2023-02-18T05:37:49;100225.81;;;6.06;100.00
31681;BME280;18281;51.364;9.566;2023-02-18T05:40:14;100223.13;;;6.07;100.00
31681;BME280;18281;51.364;9.566;2023-02-18T05:42:40;100223.19;;;6.06;100.00
31681;BME280;18281;51.364;9.566;2023-02-18T05:45:06;100221.22;;;6.13;100.00
31681;BME280;18281;51.364;9.566;2023-02-18T05:47:34;100218.56;;;6.14;100.00
31681;BME280;18281;51.364;9.566;2023-02-18T05:50:03;100214.94;;;6.18;100.00
31681;BME280;18281;51.364;9.566;2023-02-18T05:52:28;100213.66;;;6.05;100.00
31681;BME280;18281;51.364;9.566;2023-02-18T05:54:54;100216.78;;;6.16;100.00
31681;BME280;18281;51.364;9.566;2023-02-18T05:57:23;100219.53;;;6.12;100.00
31681;BME280;18281;51.364;9.566;2023-02-18T05:59:48;100216.13;;;6.10;100.00
31681;BME280;18281;51.364;9.566;2023-02-18T06:02:14;100217.47;;;6.21;100.00
31681;BME280;18281;51.364;9.566;2023-02-18T06:04:40;100211.38;;;6.22;100.00
31681;BME280;18281;51.364;9.566;2023-02-18T06:07:06;100197.47;;;6.22;100.00
31681;BME280;18281;51.364;9.566;2023-02-18T06:09:31;100195.91;;;6.16;100.00
31681;BME280;18281;51.364;9.566;2023-02-18T06:11:57;100204.53;;;6.18;100.00
31681;BME280;18281;51.364;9.566;2023-02-18T06:14:22;100194.63;;;6.03;100.00
31681;BME280;18281;51.364;9.566;2023-02-18T06:16:48;100194.44;;;6.09;100.00
31681;BME280;18281;51.364;9.566;2023-02-18T06:19:16;100200.59;;;6.06;100.00
31681;BME280;18281;51.364;9.566;2023-02-18T06:21:41;100191.16;;;6.28;100.00
31681;BME280;18281;51.364;9.566;2023-02-18T06:24:07;100193.13;;;6.22;100.00
31681;BME280;18281;51.364;9.566;2023-02-18T06:26:33;100183.03;;;6.12;100.00
31681;BME280;18281;51.364;9.566;2023-02-18T06:28:58;100185.69;;;6.10;100.00
31681;BME280;18281;51.364;9.566;2023-02-18T06:31:24;100198.31;;;6.97;100.00
31681;BME280;18281;51.364;9.566;2023-02-18T06:33:49;100189.09;;;7.10;100.00
31681;BME280;18281;51.364;9.566;2023-02-18T06:36:15;100186.28;;;7.16;100.00
31681;BME280;18281;51.364;9.566;2023-02-18T06:38:46;100182.63;;;7.20;100.00
31681;BME280;18281;51.364;9.566;2023-02-18T06:41:14;100180.16;;;6.92;100.00
31681;BME280;18281;51.364;9.566;2023-02-18T06:43:40;100176.63;;;6.71;100.00
31681;BME280;18281;51.364;9.566;2023-02-18T06:46:06;100169.97;;;6.62;100.00
31681;BME280;18281;51.364;9.566;2023-02-18T06:48:31;100179.31;;;6.44;100.00
31681;BME280;18281;51.364;9.566;2023-02-18T06:50:58;100173.47;;;6.37;100.00
31681;BME280;18281;51.364;9.566;2023-02-18T06:53:24;100176.50;;;6.25;100.00
31681;BME280;18281;51.364;9.566;2023-02-18T06:55:49;100172.50;;;6.40;100.00
31681;BME280;18281;51.364;9.566;2023-02-18T06:58:23;100171.81;;;6.35;100.00
31681;BME280;18281;51.364;9.566;2023-02-18T07:00:49;100150.72;;;6.41;100.00
31681;BME280;18281;51.364;9.566;2023-02-18T07:03:16;100150.91;;;6.36;100.00
31681;BME280;18281;51.364;9.566;2023-02-18T07:05:41;100160.63;;;6.31;100.00
31681;BME280;18281;51.364;9.566;2023-02-18T07:08:12;100142.88;;;6.17;100.00
31681;BME280;18281;51.364;9.566;2023-02-18T07:10:41;100135.78;;;6.21;100.00
31681;BME280;18281;51.364;9.566;2023-02-18T07:13:16;100139.78;;;6.06;100.00
31681;BME280;18281;51.364;9.566;2023-02-18T07:15:50;100145.38;;;6.20;100.00
31681;BME280;18281;51.364;9.566;2023-02-18T07:18:19;100142.66;;;6.23;100.00
31681;BME280;18281;51.364;9.566;2023-02-18T07:20:58;100136.75;;;6.18;100.00
31681;BME280;18281;51.364;9.566;2023-02-18T07:23:23;100137.63;;;6.19;100.00
31681;BME280;18281;51.364;9.566;2023-02-18T07:26:11;100136.88;;;6.15;100.00
31681;BME280;18281;51.364;9.566;2023-02-18T07:28:38;100132.47;;;6.17;100.00
31681;BME280;18281;51.364;9.566;2023-02-18T07:31:04;100137.25;;;6.04;100.00
31681;BME280;18281;51.364;9.566;2023-02-18T07:33:30;100135.84;;;6.19;100.00
31681;BME280;18281;51.364;9.566;2023-02-18T07:35:57;100136.09;;;6.13;100.00
31681;BME280;18281;51.364;9.566;2023-02-18T07:38:27;100132.22;;;6.23;100.00
31681;BME280;18281;51.364;9.566;2023-02-18T07:40:53;100126.66;;;6.09;100.00
31681;BME280;18281;51.364;9.566;2023-02-18T07:43:19;100138.72;;;6.12;100.00
31681;BME280;18281;51.364;9.566;2023-02-18T07:45:45;100133.25;;;6.19;100.00
31681;BME280;18281;51.364;9.566;2023-02-18T07:48:11;100138.44;;;5.96;100.00
31681;BME280;18281;51.364;9.566;2023-02-18T07:50:41;100129.94;;;6.14;100.00
31681;BME280;18281;51.364;9.566;2023-02-18T07:53:15;100135.78;;;6.21;100.00
31681;BME280;18281;51.364;9.566;2023-02-18T07:55:43;100133.25;;;6.19;100.00
31681;BME280;18281;51.364;9.566;2023-02-18T07:58:36;100126.22;;;6.21;100.00
31681;BME280;18281;51.364;9.566;2023-02-18T08:01:10;100128.78;;;6.23;100.00
31681;BME280;18281;51.364;9.566;2023-02-18T08:03:57;100121.97;;;6.19;100.00
31681;BME280;18281;51.364;9.566;2023-02-18T08:06:37;100124.25;;;6.28;100.00
31681;BME280;18281;51.364;9.566;2023-02-18T08:09:09;100123.56;;;6.23;100.00
31681;BME280;18281;51.364;9.566;2023-02-18T08:11:46;100122.03;;;6.17;100.00
31681;BME280;18281;51.364;9.566;2023-02-18T08:14:11;100115.31;;;6.10;100.00
31681;BME280;18281;51.364;9.566;2023-02-18T08:16:39;100112.19;;;6.26;100.00
31681;BME280;18281;51.364;9.566;2023-02-18T08:19:05;100117.34;;;6.02;100.00
31681;BME280;18281;51.364;9.566;2023-02-18T08:21:32;100117.53;;;6.21;100.00
31681;BME280;18281;51.364;9.566;2023-02-18T08:23:58;100115.88;;;6.18;100.00
31681;BME280;18281;51.364;9.566;2023-02-18T08:26:24;100115.47;;;6.31;100.00
31681;BME280;18281;51.364;9.566;2023-02-18T08:28:50;100116.50;;;6.27;100.00
31681;BME280;18281;51.364;9.566;2023-02-18T08:31:24;100112.19;;;6.26;100.00
31681;BME280;18281;51.364;9.566;2023-02-18T08:33:54;100114.09;;;6.20;100.00
31681;BME280;18281;51.364;9.566;2023-02-18T08:36:20;100120.06;;;6.24;100.00
31681;BME280;18281;51.364;9.566;2023-02-18T08:38:46;100119.03;;;6.28;100.00
31681;BME280;18281;51.364;9.566;2023-02-18T08:41:12;100116.31;;;6.31;100.00
31681;BME280;18281;51.364;9.566;2023-02-18T08:43:39;100107.97;;;6.21;100.00
31681;BME280;18281;51.364;9.566;2023-02-18T08:46:04;100107.75;;;6.28;100.00
31681;BME280;18281;51.364;9.566;2023-02-18T08:48:30;100113.34;;;6.17;100.00
31681;BME280;18281;51.364;9.566;2023-02-18T08:50:56;100116.53;;;6.25;100.00
31681;BME280;18281;51.364;9.566;2023-02-18T08:53:21;100112.81;;;6.32;100.00
31681;BME280;18281;51.364;9.566;2023-02-18T08:55:47;100111.03;;;6.33;100.00
31681;BME280;18281;51.364;9.566;2023-02-18T08:58:12;100121.06;;;6.44;100.00
31681;BME280;18281;51.364;9.566;2023-02-18T09:00:39;100114.13;;;6.44;100.00
31681;BME280;18281;51.364;9.566;2023-02-18T09:03:05;100110.00;;;6.37;100.00
31681;BME280;18281;51.364;9.566;2023-02-18T09:05:30;100105.28;;;6.48;100.00
31681;BME280;18281;51.364;9.566;2023-02-18T09:07:56;100096.44;;;6.52;100.00
31681;BME280;18281;51.364;9.566;2023-02-18T09:10:22;100105.22;;;6.50;100.00
31681;BME280;18281;51.364;9.566;2023-02-18T09:12:50;100106.97;;;6.49;100.00
31681;BME280;18281;51.364;9.566;2023-02-18T09:15:16;100106.22;;;6.46;100.00
31681;BME280;18281;51.364;9.566;2023-02-18T09:17:41;100108.72;;;6.49;100.00
31681;BME280;18281;51.364;9.566;2023-02-18T09:20:10;100102.66;;;6.48;100.00
31681;BME280;18281;51.364;9.566;2023-02-18T09:22:43;100097.31;;;6.51;100.00
31681;BME280;18281;51.364;9.566;2023-02-18T09:25:30;100097.44;;;6.48;100.00
31681;BME280;18281;51.364;9.566;2023-02-18T09:28:00;100099.81;;;6.54;100.00
31681;BME280;18281;51.364;9.566;2023-02-18T09:46:53;100084.84;;;6.60;100.00
31681;BME280;18281;51.364;9.566;2023-02-18T09:49:26;100093.13;;;6.71;100.00
31681;BME280;18281;51.364;9.566;2023-02-18T09:51:53;100095.81;;;6.69;100.00
31681;BME280;18281;51.364;9.566;2023-02-18T09:54:20;100088.88;;;6.68;100.00
31681;BME280;18281;51.364;9.566;2023-02-18T09:56:46;100087.34;;;6.63;100.00
31681;BME280;18281;51.364;9.566;2023-02-18T09:59:17;100091.63;;;6.64;100.00
31681;BME280;18281;51.364;9.566;2023-02-18T10:01:45;100084.38;;;6.72;100.00
31681;BME280;18281;51.364;9.566;2023-02-18T10:14:50;100076.44;;;6.75;100.00
31681;BME280;18281;51.364;9.566;2023-02-18T10:17:18;100081.75;;;6.72;100.00
31681;BME280;18281;51.364;9.566;2023-02-18T10:19:47;100071.22;;;6.75;100.00
31681;BME280;18281;51.364;9.566;2023-02-18T10:22:24;100072.13;;;6.74;100.00
31681;BME280;18281;51.364;9.566;2023-02-18T10:24:56;100065.25;;;6.71;100.00
31681;BME280;18281;51.364;9.566;2023-02-18T10:27:28;100072.13;;;6.74;100.00
31681;BME280;18281;51.364;9.566;2023-02-18T10:30:27;100061.56;;;6.77;100.00
31681;BME280;18281;51.364;9.566;2023-02-18T10:33:13;100064.97;;;6.79;100.00
31681;BME280;18281;51.364;9.566;2023-02-18T10:35:59;100050.97;;;6.82;100.00
31681;BME280;18281;51.364;9.566;2023-02-18T10:41:43;100049.28;;;7.66;100.00
31681;BME280;18281;51.364;9.566;2023-02-18T10:44:14;100054.31;;;7.71;100.00
31681;BME280;18281;51.364;9.566;2023-02-18T10:47:03;100042.69;;;7.37;100.00
31681;BME280;18281;51.364;9.566;2023-02-18T10:52:27;100046.84;;;7.20;100.00
31681;BME280;18281;51.364;9.566;2023-02-18T10:55:03;100040.66;;;7.01;100.00
31681;BME280;18281;51.364;9.566;2023-02-18T10:57:30;100028.84;;;6.90;100.00
31681;BME280;18281;51.364;9.566;2023-02-18T11:02:35;100034.31;;;7.29;100.00
31681;BME280;18281;51.364;9.566;2023-02-18T11:05:15;100036.66;;;7.35;100.00
31681;BME280;18281;51.364;9.566;2023-02-18T11:07:46;100041.41;;;7.47;100.00
31681;BME280;18281;51.364;9.566;2023-02-18T11:10:21;100051.41;;;7.36;100.00
31681;BME280;18281;51.364;9.566;2023-02-18T11:12:49;100055.16;;;7.08;100.00
31681;BME280;18281;51.364;9.566;2023-02-18T11:15:20;100055.88;;;7.34;100.00
31681;BME280;18281;51.364;9.566;2023-02-18T11:17:53;100053.13;;;7.37;100.00
31681;BME280;18281;51.364;9.566;2023-02-18T11:22:50;100057.19;;;7.65;100.00
31681;BME280;18281;51.364;9.566;2023-02-18T11:25:22;100048.91;;;7.76;100.00
31681;BME280;18281;51.364;9.566;2023-02-18T11:27:54;100050.38;;;7.81;100.00
31681;BME280;18281;51.364;9.566;2023-02-18T11:30:24;100056.53;;;7.60;100.00
31681;BME280;18281;51.364;9.566;2023-02-18T11:32:54;100065.91;;;7.22;100.00
31681;BME280;18281;51.364;9.566;2023-02-18T11:35:27;100059.69;;;7.25;100.00
31681;BME280;18281;51.364;9.566;2023-02-18T11:37:56;100057.91;;;7.48;100.00
31681;BME280;18281;51.364;9.566;2023-02-18T11:40:30;100059.16;;;7.60;100.00
31681;BME280;18281;51.364;9.566;2023-02-18T11:43:22;100054.44;;;7.68;100.00
31681;BME280;18281;51.364;9.566;2023-02-18T11:46:11;100060.41;;;7.71;100.00
31681;BME280;18281;51.364;9.566;2023-02-18T11:48:39;100058.31;;;7.80;100.00
31681;BME280;18281;51.364;9.566;2023-02-18T11:51:07;100046.66;;;7.87;100.00
31681;BME280;18281;51.364;9.566;2023-02-18T11:53:38;100053.41;;;7.72;100.00
31681;BME280;18281;51.364;9.566;2023-02-18T11:56:15;100041.56;;;7.84;100.00
31681;BME280;18281;51.364;9.566;2023-02-18T11:58:44;100049.25;;;7.87;100.00
31681;BME280;18281;51.364;9.566;2023-02-18T12:01:17;100041.25;;;7.91;100.00
31681;BME280;18281;51.364;9.566;2023-02-18T12:03:58;100051.41;;;7.98;100.00
31681;BME280;18281;51.364;9.566;2023-02-18T12:06:32;100053.09;;;7.99;100.00
31681;BME280;18281;51.364;9.566;2023-02-18T12:09:35;100050.63;;;7.96;100.00
31681;BME280;18281;51.364;9.566;2023-02-18T12:12:13;100040.19;;;7.96;100.00
31681;BME280;18281;51.364;9.566;2023-02-18T12:14:39;100046.94;;;7.60;100.00
31681;BME280;18281;51.364;9.566;2023-02-18T12:31:05;100038.09;;;7.63;100.00
31681;BME280;18281;51.364;9.566;2023-02-18T12:36:57;100043.25;;;7.23;100.00
31681;BME280;18281;51.364;9.566;2023-02-18T12:39:59;100046.63;;;7.04;100.00
31681;BME280;18281;51.364;9.566;2023-02-18T12:48:23;100032.03;;;6.99;100.00
31681;BME280;18281;51.364;9.566;2023-02-18T12:59:29;100042.53;;;6.97;100.00
31681;BME280;18281;51.364;9.566;2023-02-18T13:05:05;100033.16;;;6.91;100.00
31681;BME280;18281;51.364;9.566;2023-02-18T13:13:38;100014.41;;;8.07;100.00
31681;BME280;18281;51.364;9.566;2023-02-18T13:16:09;100022.69;;;7.77;100.00
31681;BME280;18281;51.364;9.566;2023-02-18T13:19:28;100031.19;;;7.41;100.00
31681;BME280;18281;51.364;9.566;2023-02-18T13:21:59;100039.06;;;7.19;100.00
31681;BME280;18281;51.364;9.566;2023-02-18T13:24:43;100040.81;;;7.18;100.00
31681;BME280;18281;51.364;9.566;2023-02-18T13:27:18;100035.97;;;7.09;100.00
31681;BME280;18281;51.364;9.566;2023-02-18T13:35:27;100034.16;;;7.11;100.00
31681;BME280;18281;51.364;9.566;2023-02-18T13:40:57;100038.84;;;7.03;100.00
31681;BME280;18281;51.364;9.566;2023-02-18T13:48:43;100054.69;;;6.98;100.00
31681;BME280;18281;51.364;9.566;2023-02-18T13:51:11;100045.22;;;6.72;100.00
31681;BME280;18281;51.364;9.566;2023-02-18T13:53:39;100048.41;;;6.80;100.00
31681;BME280;18281;51.364;9.566;2023-02-18T13:56:09;100042.16;;;6.84;100.00
31681;BME280;18281;51.364;9.566;2023-02-18T13:58:51;100045.09;;;6.99;100.00
31681;BME280;18281;51.364;9.566;2023-02-18T14:01:39;100045.84;;;6.79;100.00
31681;BME280;18281;51.364;9.566;2023-02-18T14:10:45;100039.16;;;6.95;100.00
31681;BME280;18281;51.364;9.566;2023-02-18T14:17:49;100042.88;;;6.66;100.00
31681;BME280;18281;51.364;9.566;2023-02-18T14:20:42;100055.13;;;6.64;100.00
31681;BME280;18281;51.364;9.566;2023-02-18T14:33:48;100044.22;;;6.76;100.00
31681;BME280;18281;51.364;9.566;2023-02-18T14:36:45;100062.91;;;6.87;100.00
31681;BME280;18281;51.364;9.566;2023-02-18T14:39:42;100053.03;;;6.96;100.00
31681;BME280;18281;51.364;9.566;2023-02-18T14:45:08;100055.88;;;6.89;100.00
31681;BME280;18281;51.364;9.566;2023-02-18T14:50:14;100063.50;;;6.94;100.00
31681;BME280;18281;51.364;9.566;2023-02-18T14:52:51;100057.22;;;6.78;100.00
31681;BME280;18281;51.364;9.566;2023-02-18T14:55:22;100059.75;;;7.03;100.00
31681;BME280;18281;51.364;9.566;2023-02-18T14:57:53;100060.16;;;7.14;100.00
31681;BME280;18281;51.364;9.566;2023-02-18T15:00:25;100057.97;;;7.03;100.00
31681;BME280;18281;51.364;9.566;2023-02-18T15:02:57;100050.13;;;7.03;100.00
31681;BME280;18281;51.364;9.566;2023-02-18T15:05:25;100056.13;;;7.05;100.00
31681;BME280;18281;51.364;9.566;2023-02-18T15:08:04;100057.47;;;6.94;100.00
31681;BME280;18281;51.364;9.566;2023-02-18T15:10:42;100055.16;;;7.08;100.00
31681;BME280;18281;51.364;9.566;2023-02-18T15:13:33;100057.63;;;6.89;100.00
31681;BME280;18281;51.364;9.566;2023-02-18T15:16:03;100068.00;;;6.90;100.00
31681;BME280;18281;51.364;9.566;2023-02-18T15:18:36;100063.50;;;6.94;100.00
31681;BME280;18281;51.364;9.566;2023-02-18T15:21:04;100081.03;;;6.68;100.00
31681;BME280;18281;51.364;9.566;2023-02-18T15:23:34;100079.41;;;6.88;100.00
31681;BME280;18281;51.364;9.566;2023-02-18T15:26:00;100086.69;;;6.80;100.00
31681;BME280;18281;51.364;9.566;2023-02-18T15:28:30;100088.88;;;6.90;100.00
31681;BME280;18281;51.364;9.566;2023-02-18T15:30:58;100090.53;;;6.93;100.00
31681;BME280;18281;51.364;9.566;2023-02-18T15:33:24;100081.69;;;6.97;100.00
31681;BME280;18281;51.364;9.566;2023-02-18T15:35:50;100086.00;;;6.98;100.00
31681;BME280;18281;51.364;9.566;2023-02-18T15:38:18;100092.03;;;7.00;100.00
31681;BME280;18281;51.364;9.566;2023-02-18T15:40:48;100089.13;;;6.84;100.00
31681;BME280;18281;51.364;9.566;2023-02-18T15:43:18;100084.75;;;6.85;100.00